createdAt,value
2023-05-24T00:00:44.343Z,99837.77
2023-05-24T00:03:12.730Z,99833.77
2023-05-24T00:05:40.447Z,99833.98
2023-05-24T00:08:06.950Z,99830.83
2023-05-24T00:10:33.709Z,99833.48
2023-05-24T00:13:00.232Z,99832.46
2023-05-24T00:15:26.939Z,99832.98
2023-05-24T00:17:53.517Z,99835.63
2023-05-24T00:20:20.454Z,99836.45
2023-05-24T00:22:47.025Z,99837.05
2023-05-24T00:25:13.557Z,99842.10
2023-05-24T00:27:40.457Z,99839.02
2023-05-24T00:30:07.662Z,99840.79
2023-05-24T00:32:36.276Z,99839.23
2023-05-24T00:35:04.507Z,99841.20
2023-05-24T00:37:31.868Z,99839.17
2023-05-24T00:39:58.268Z,99838.27
2023-05-24T00:42:24.941Z,99837.99
2023-05-24T00:44:51.838Z,99837.33
2023-05-24T00:47:18.807Z,99834.25
2023-05-24T00:49:46.150Z,99836.55
2023-05-24T00:52:12.709Z,99834.85
2023-05-24T00:54:40.163Z,99837.16
2023-05-24T00:57:06.862Z,99833.30
2023-05-24T00:59:33.380Z,99840.35
2023-05-24T01:02:00.267Z,99839.31
2023-05-24T01:04:28.151Z,99840.05
2023-05-24T01:07:26.129Z,99839.76
2023-05-24T01:10:14.460Z,99841.29
2023-05-24T01:12:46.703Z,99839.54
2023-05-24T01:15:28.005Z,99837.30
2023-05-24T01:18:11.369Z,99839.91
2023-05-24T01:20:38.834Z,99841.20
2023-05-24T01:23:05.856Z,99840.21
2023-05-24T01:25:46.917Z,99846.09
2023-05-24T01:28:13.358Z,99847.75
2023-05-24T01:30:40.114Z,99849.41
2023-05-24T01:33:06.993Z,99850.65
2023-05-24T01:35:39.839Z,99854.35
2023-05-24T01:38:06.652Z,99851.25
2023-05-24T01:40:34.832Z,99848.33
2023-05-24T01:43:03.486Z,99846.80
2023-05-24T01:45:39.174Z,99849.05
2023-05-24T01:48:18.189Z,99847.77
2023-05-24T01:51:06.555Z,99846.54
2023-05-24T01:53:34.319Z,99848.83
2023-05-24T01:56:03.398Z,99849.84
2023-05-24T01:58:30.686Z,99847.44
2023-05-24T02:00:57.414Z,99848.41
2023-05-24T02:03:25.693Z,99850.11
2023-05-24T02:05:52.658Z,99852.67
2023-05-24T02:08:19.545Z,99854.75
2023-05-24T02:10:46.220Z,99855.30
2023-05-24T02:13:13.441Z,99853.86
2023-05-24T02:15:41.560Z,99857.52
2023-05-24T02:18:12.562Z,99857.42
2023-05-24T02:20:40.058Z,99859.55
2023-05-24T02:23:07.281Z,99862.27
2023-05-24T02:25:34.489Z,99862.13
2023-05-24T02:28:01.981Z,99863.03
2023-05-24T02:30:28.965Z,99867.69
2023-05-24T02:32:55.690Z,99870.40
2023-05-24T02:35:22.583Z,99867.89
2023-05-24T02:37:49.115Z,99871.96
2023-05-24T02:40:15.671Z,99870.52
2023-05-24T02:42:42.432Z,99868.48
2023-05-24T02:45:09.820Z,99867.55
2023-05-24T02:47:36.853Z,99870.95
2023-05-24T02:50:04.413Z,99865.80
2023-05-24T02:52:32.491Z,99865.13
2023-05-24T02:54:59.476Z,99869.64
2023-05-24T02:57:28.295Z,99872.52
2023-05-24T02:59:55.650Z,99872.91
2023-05-24T03:02:22.546Z,99870.45
2023-05-24T03:04:49.837Z,99873.31
2023-05-24T03:07:16.722Z,99871.87
2023-05-24T03:09:43.507Z,99869.30
2023-05-24T03:12:10.305Z,99868.27
2023-05-24T03:14:37.893Z,99867.20
2023-05-24T03:17:06.131Z,99867.60
2023-05-24T03:19:33.616Z,99864.33
2023-05-24T03:22:00.281Z,99865.79
2023-05-24T03:24:26.866Z,99871.17
2023-05-24T03:26:53.732Z,99871.90
2023-05-24T03:29:21.133Z,99873.38
2023-05-24T03:31:48.254Z,99875.26
2023-05-24T03:34:15.093Z,99874.50
2023-05-24T03:36:41.663Z,99876.50
2023-05-24T03:39:09.463Z,99874.44
2023-05-24T03:41:49.642Z,99874.72
2023-05-24T03:44:16.372Z,99879.05
2023-05-24T03:46:43.081Z,99875.78
2023-05-24T03:49:12.668Z,99880.18
2023-05-24T03:51:40.234Z,99876.49
2023-05-24T03:54:07.120Z,99876.55
2023-05-24T03:56:33.910Z,99882.65
2023-05-24T03:59:03.383Z,99886.94
2023-05-24T04:01:35.018Z,99888.01
2023-05-24T04:04:03.227Z,99887.61
2023-05-24T04:06:29.974Z,99887.58
2023-05-24T04:08:57.918Z,99893.98
2023-05-24T04:11:27.761Z,99893.08
2023-05-24T04:13:59.769Z,99894.34
2023-05-24T04:16:26.831Z,99893.98
2023-05-24T04:18:57.629Z,99891.31
2023-05-24T04:21:25.401Z,99890.76
2023-05-24T04:23:52.998Z,99891.36
2023-05-24T04:26:20.658Z,99894.09
2023-05-24T04:28:47.885Z,99893.39
2023-05-24T04:31:15.757Z,99892.94
2023-05-24T04:33:42.581Z,99893.38
2023-05-24T04:36:11.375Z,99893.13
2023-05-24T04:38:38.624Z,99890.89
2023-05-24T04:41:05.317Z,99893.71
2023-05-24T04:43:36.512Z,99901.09
2023-05-24T04:46:03.293Z,99904.78
2023-05-24T04:48:30.074Z,99903.40
2023-05-24T04:50:57.806Z,99906.39
2023-05-24T04:53:25.120Z,99911.98
2023-05-24T04:55:52.009Z,99910.09
2023-05-24T04:58:18.575Z,99913.46
2023-05-24T05:00:45.134Z,99912.20
2023-05-24T05:03:12.007Z,99913.18
2023-05-24T05:05:38.820Z,99914.54
2023-05-24T05:08:05.763Z,99916.15
2023-05-24T05:10:32.736Z,99913.41
2023-05-24T05:12:59.648Z,99914.30
2023-05-24T05:15:28.996Z,99914.31
2023-05-24T05:17:56.929Z,99909.39
2023-05-24T05:20:24.128Z,99913.11
2023-05-24T05:22:50.635Z,99907.24
2023-05-24T05:25:17.499Z,99904.98
2023-05-24T05:27:44.052Z,99907.60
2023-05-24T05:30:11.618Z,99900.54
2023-05-24T05:32:39.575Z,99901.53
2023-05-24T05:35:06.681Z,99901.89
2023-05-24T05:37:33.704Z,99904.10
2023-05-24T05:40:00.475Z,99906.08
2023-05-24T05:42:27.068Z,99908.20
2023-05-24T05:44:53.671Z,99916.85
2023-05-24T05:47:20.158Z,99920.25
2023-05-24T05:49:46.824Z,99919.77
2023-05-24T05:52:13.560Z,99918.88
2023-05-24T05:54:40.404Z,99923.14
2023-05-24T05:57:09.916Z,99924.01
2023-05-24T05:59:37.604Z,99926.02
2023-05-24T06:02:05.965Z,99928.17
2023-05-24T06:04:33.407Z,99928.86
2023-05-24T06:07:01.689Z,99927.88
2023-05-24T06:09:28.528Z,99924.58
2023-05-24T06:11:55.239Z,99924.30
2023-05-24T06:14:22.038Z,99926.08
2023-05-24T06:16:49.005Z,99925.39
2023-05-24T06:19:16.074Z,99922.64
2023-05-24T06:21:47.361Z,99920.40
2023-05-24T06:24:14.985Z,99916.58
2023-05-24T06:26:44.973Z,99916.29
2023-05-24T06:29:11.666Z,99919.66
2023-05-24T06:31:38.686Z,99920.80
2023-05-24T06:34:05.546Z,99921.22
2023-05-24T06:36:35.162Z,99920.00
2023-05-24T06:39:02.107Z,99919.32
2023-05-24T06:41:29.250Z,99915.75
2023-05-24T06:43:55.864Z,99918.02
2023-05-24T06:46:22.606Z,99919.59
2023-05-24T06:48:49.264Z,99922.55
2023-05-24T06:51:16.621Z,99922.57
2023-05-24T06:53:43.197Z,99923.11
2023-05-24T06:56:09.903Z,99921.65
2023-05-24T06:58:37.229Z,99920.36
2023-05-24T07:01:04.398Z,99916.09
2023-05-24T07:03:31.540Z,99919.22
2023-05-24T07:05:58.220Z,99920.83
2023-05-24T07:08:25.070Z,99925.18
2023-05-24T07:10:55.358Z,99926.95
2023-05-24T07:13:22.814Z,99930.69
2023-05-24T07:15:51.022Z,99931.75
2023-05-24T07:18:17.875Z,99928.95
2023-05-24T07:20:44.717Z,99930.54
2023-05-24T07:23:11.662Z,99929.35
2023-05-24T07:25:38.206Z,99931.34
2023-05-24T07:28:05.280Z,99926.85
2023-05-24T07:30:32.922Z,99930.29
2023-05-24T07:33:00.312Z,99926.77
2023-05-24T07:35:28.758Z,99926.40
2023-05-24T07:37:55.862Z,99922.77
2023-05-24T07:40:22.663Z,99922.50
2023-05-24T07:42:49.321Z,99925.22
2023-05-24T07:45:15.885Z,99933.38
2023-05-24T07:47:42.680Z,99935.70
2023-05-24T07:50:10.001Z,99937.38
2023-05-24T07:52:38.128Z,99935.45
2023-05-24T07:55:06.024Z,99928.27
2023-05-24T07:57:33.027Z,99927.80
2023-05-24T08:00:06.445Z,99933.67
2023-05-24T08:02:38.557Z,99933.71
2023-05-24T08:05:06.130Z,99933.73
2023-05-24T08:07:32.852Z,99934.43
2023-05-24T08:09:59.586Z,99940.80
2023-05-24T08:12:26.338Z,99942.25
2023-05-24T08:14:52.963Z,99946.48
2023-05-24T08:17:19.528Z,99942.85
2023-05-24T08:19:46.059Z,99940.80
2023-05-24T08:22:12.498Z,99941.10
2023-05-24T08:24:39.197Z,99940.66
2023-05-24T08:27:06.777Z,99939.93
2023-05-24T08:29:35.168Z,99941.64
2023-05-24T08:32:02.144Z,99940.24
2023-05-24T08:34:29.540Z,99936.69
2023-05-24T08:36:56.050Z,99930.77
2023-05-24T08:39:23.230Z,99930.20
2023-05-24T08:42:07.283Z,99932.00
2023-05-24T08:44:39.981Z,99928.59
2023-05-24T08:47:09.071Z,99927.75
2023-05-24T08:51:23.720Z,99929.68
2023-05-24T08:53:51.193Z,99924.36
2023-05-24T08:56:18.997Z,99924.98
2023-05-24T08:58:47.499Z,99923.15
2023-05-24T09:01:17.000Z,99927.20
2023-05-24T09:03:46.361Z,99926.06
2023-05-24T09:06:16.787Z,99926.50
2023-05-24T09:08:45.372Z,99920.91
2023-05-24T09:11:12.690Z,99915.77
2023-05-24T09:13:40.510Z,99917.14
2023-05-24T09:16:08.098Z,99922.75
2023-05-24T09:18:36.401Z,99923.16
2023-05-24T09:21:03.811Z,99926.44
2023-05-24T09:23:31.213Z,99925.62
2023-05-24T09:25:58.773Z,99924.01
2023-05-24T09:28:26.157Z,99923.73
2023-05-24T09:31:07.337Z,99919.92
2023-05-24T09:33:35.722Z,99921.17
2023-05-24T09:36:04.708Z,99926.36
2023-05-24T09:38:32.092Z,99927.95
2023-05-24T09:41:00.610Z,99925.59
2023-05-24T09:43:31.916Z,99929.56
2023-05-24T09:46:00.747Z,99930.63
2023-05-24T09:48:39.928Z,99930.49
2023-05-24T09:51:11.837Z,99936.13
2023-05-24T09:53:39.253Z,99942.04
2023-05-24T09:56:08.687Z,99937.90
2023-05-24T09:58:36.407Z,99944.63
2023-05-24T10:01:08.115Z,99946.17
2023-05-24T10:03:37.993Z,99950.49
2023-05-24T10:06:08.034Z,99951.62
2023-05-24T10:08:36.820Z,99950.81
2023-05-24T10:11:04.983Z,99948.20
2023-05-24T10:13:33.733Z,99950.11
2023-05-24T10:16:01.293Z,99953.38
2023-05-24T10:18:29.142Z,99950.60
2023-05-24T10:20:59.666Z,99951.05
2023-05-24T10:23:30.236Z,99949.73
2023-05-24T10:26:17.881Z,99953.13
2023-05-24T10:28:55.057Z,99944.30
2023-05-24T10:31:25.568Z,99946.32
2023-05-24T10:33:55.595Z,99942.75
2023-05-24T10:36:26.658Z,99945.02
2023-05-24T10:38:54.399Z,99943.23
2023-05-24T10:41:22.470Z,99945.02
2023-05-24T10:44:04.810Z,99945.83
2023-05-24T10:46:35.150Z,99945.48
2023-05-24T10:49:06.569Z,99945.49
2023-05-24T10:51:38.810Z,99939.67
2023-05-24T10:54:19.821Z,99940.02
2023-05-24T10:56:48.873Z,99939.86
2023-05-24T10:59:35.736Z,99941.23
2023-05-24T11:02:10.532Z,99948.46
2023-05-24T11:04:40.216Z,99953.28
2023-05-24T11:07:09.769Z,99951.80
2023-05-24T11:09:46.057Z,99955.98
2023-05-24T11:12:20.871Z,99963.70
2023-05-24T11:14:52.844Z,99963.09
2023-05-24T11:17:23.119Z,99969.79
2023-05-24T11:19:54.614Z,99970.28
2023-05-24T11:22:24.298Z,99970.29
2023-05-24T11:24:53.740Z,99962.84
2023-05-24T11:27:21.244Z,99955.55
2023-05-24T11:29:51.337Z,99951.39
2023-05-24T11:32:21.038Z,99950.14
2023-05-24T11:34:51.262Z,99952.22
2023-05-24T11:37:24.033Z,99949.19
2023-05-24T11:39:56.874Z,99946.06
2023-05-24T11:42:24.961Z,99950.14
2023-05-24T11:44:53.347Z,99950.70
2023-05-24T11:47:22.932Z,99952.27
2023-05-24T11:49:52.208Z,99950.64
2023-05-24T11:52:19.579Z,99946.10
2023-05-24T11:54:46.930Z,99945.17
2023-05-24T11:57:14.432Z,99943.92
2023-05-24T11:59:42.200Z,99942.80
2023-05-24T12:02:10.885Z,99939.80
2023-05-24T12:04:38.539Z,99937.23
2023-05-24T12:07:05.907Z,99935.44
2023-05-24T12:09:33.254Z,99929.55
2023-05-24T12:12:02.021Z,99925.03
2023-05-24T12:14:33.334Z,99920.66
2023-05-24T12:17:01.951Z,99918.77
2023-05-24T12:19:37.129Z,99917.79
2023-05-24T12:22:09.152Z,99914.63
2023-05-24T12:24:37.366Z,99914.23
2023-05-24T12:27:09.704Z,99918.90
2023-05-24T12:29:39.870Z,99922.02
2023-05-24T12:32:12.442Z,99917.29
2023-05-24T12:34:41.662Z,99920.23
2023-05-24T12:37:12.354Z,99921.67
2023-05-24T12:39:42.560Z,99921.98
2023-05-24T12:42:20.977Z,99917.88
2023-05-24T12:44:52.493Z,99913.30
2023-05-24T12:47:19.832Z,99913.89
2023-05-24T12:49:47.559Z,99915.52
2023-05-24T12:52:17.774Z,99916.71
2023-05-24T12:54:46.848Z,99914.69
2023-05-24T12:57:14.215Z,99914.07
2023-05-24T12:59:42.256Z,99908.23
2023-05-24T13:02:10.819Z,99904.88
2023-05-24T13:04:39.491Z,99898.85
2023-05-24T13:07:06.788Z,99895.48
2023-05-24T13:09:35.674Z,99894.66
2023-05-24T13:12:06.156Z,99889.78
2023-05-24T13:14:34.382Z,99885.36
2023-05-24T13:17:02.118Z,99883.30
2023-05-24T13:19:30.443Z,99885.83
2023-05-24T13:22:00.597Z,99884.54
2023-05-24T13:24:28.343Z,99884.02
2023-05-24T13:26:55.705Z,99882.76
2023-05-24T13:31:55.038Z,99880.36
2023-05-24T13:34:25.766Z,99878.14
2023-05-24T13:36:54.578Z,99875.73
2023-05-24T13:39:22.284Z,99876.27
2023-05-24T13:41:49.818Z,99878.38
2023-05-24T13:44:17.350Z,99876.74
2023-05-24T13:46:44.810Z,99878.74
2023-05-24T13:49:12.426Z,99886.19
2023-05-24T13:51:40.488Z,99890.23
2023-05-24T13:54:08.485Z,99893.32
2023-05-24T13:56:36.662Z,99894.09
2023-05-24T13:59:04.836Z,99894.05
2023-05-24T14:01:33.360Z,99893.84
2023-05-24T14:04:01.946Z,99894.67
2023-05-24T14:06:29.402Z,99892.15
2023-05-24T14:08:57.570Z,99892.18
2023-05-24T14:11:25.650Z,99889.09
2023-05-24T14:16:24.536Z,99882.73
2023-05-24T14:18:52.203Z,99885.66
2023-05-24T14:21:19.754Z,99885.27
2023-05-24T14:23:47.504Z,99880.34
2023-05-24T14:26:14.883Z,99879.46
2023-05-24T14:28:42.249Z,99879.19
2023-05-24T14:31:09.717Z,99886.13
2023-05-24T14:33:38.495Z,99881.71
2023-05-24T14:36:06.712Z,99881.83
2023-05-24T14:38:34.030Z,99877.66
2023-05-24T14:41:01.793Z,99873.95
2023-05-24T14:43:29.278Z,99878.52
2023-05-24T14:45:57.042Z,99886.58
2023-05-24T14:48:24.424Z,99888.80
2023-05-24T14:50:52.416Z,99892.08
2023-05-24T14:53:19.780Z,99896.45
2023-05-24T14:55:47.438Z,99897.36
2023-05-24T14:58:15.124Z,99898.42
2023-05-24T15:00:48.922Z,99895.08
2023-05-24T15:03:16.673Z,99891.67
2023-05-24T15:05:44.347Z,99892.10
2023-05-24T15:08:11.811Z,99896.14
2023-05-24T15:10:39.656Z,99895.21
2023-05-24T15:13:07.049Z,99896.03
2023-05-24T15:15:34.394Z,99894.40
2023-05-24T15:18:01.929Z,99896.52
2023-05-24T15:20:29.858Z,99897.51
2023-05-24T15:22:57.256Z,99898.60
2023-05-24T15:25:24.644Z,99898.18
2023-05-24T15:27:52.067Z,99904.95
2023-05-24T15:30:19.746Z,99906.52
2023-05-24T15:32:47.659Z,99909.09
2023-05-24T15:35:15.186Z,99909.52
2023-05-24T15:37:42.689Z,99903.88
2023-05-24T15:40:11.061Z,99903.11
2023-05-24T15:42:38.467Z,99903.15
2023-05-24T15:45:07.299Z,99906.13
2023-05-24T15:47:40.198Z,99906.59
2023-05-24T15:50:08.868Z,99908.13
2023-05-24T15:52:36.486Z,99909.98
2023-05-24T15:55:04.267Z,99915.94
2023-05-24T15:57:31.780Z,99919.37
2023-05-24T15:59:59.143Z,99916.17
2023-05-24T16:02:27.158Z,99913.15
2023-05-24T16:04:55.594Z,99920.56
2023-05-24T16:07:23.830Z,99920.22
2023-05-24T16:09:51.360Z,99924.36
2023-05-24T16:12:20.131Z,99920.98
2023-05-24T16:14:47.495Z,99919.55
2023-05-24T16:17:17.840Z,99915.10
2023-05-24T16:19:49.693Z,99911.08
2023-05-24T16:22:17.339Z,99910.98
2023-05-24T16:24:44.798Z,99915.91
2023-05-24T16:27:12.689Z,99919.25
2023-05-24T16:29:43.709Z,99918.91
2023-05-24T16:32:11.513Z,99917.27
2023-05-24T16:34:55.060Z,99917.89
2023-05-24T16:37:24.256Z,99918.64
2023-05-24T16:39:51.787Z,99922.55
2023-05-24T16:42:19.290Z,99920.20
2023-05-24T16:44:46.945Z,99921.91
2023-05-24T16:47:14.419Z,99923.60
2023-05-24T16:49:41.866Z,99930.16
2023-05-24T16:52:09.229Z,99936.48
2023-05-24T16:54:36.754Z,99940.46
2023-05-24T16:57:04.333Z,99943.32
2023-05-24T16:59:32.299Z,99945.64
2023-05-24T17:02:00.850Z,99946.88
2023-05-24T17:04:28.313Z,99950.69
2023-05-24T17:06:55.947Z,99953.11
2023-05-24T17:09:23.511Z,99953.04
2023-05-24T17:11:51.131Z,99953.65
2023-05-24T17:14:18.627Z,99952.36
2023-05-24T17:16:46.015Z,99957.25
2023-05-24T17:19:14.322Z,99960.77
2023-05-24T17:21:43.385Z,99966.47
2023-05-24T17:24:11.054Z,99968.35
2023-05-24T17:26:40.498Z,99972.52
2023-05-24T17:29:08.487Z,99973.31
2023-05-24T17:31:36.304Z,99973.41
2023-05-24T17:34:03.807Z,99971.67
2023-05-24T17:36:33.675Z,99976.52
2023-05-24T17:39:01.635Z,99976.55
2023-05-24T17:41:28.991Z,99982.02
2023-05-24T17:43:57.295Z,99986.69
2023-05-24T17:46:27.879Z,99990.98
2023-05-24T17:48:56.512Z,99993.01
2023-05-24T17:51:24.756Z,99997.13
2023-05-24T17:53:52.276Z,100002.69
2023-05-24T17:56:22.384Z,100003.38
2023-05-24T17:58:50.745Z,100005.98
2023-05-24T18:01:18.284Z,100008.59
2023-05-24T18:03:46.711Z,100010.42
2023-05-24T18:06:15.830Z,100017.72
2023-05-24T18:08:44.531Z,100021.08
2023-05-24T18:11:14.598Z,100018.83
2023-05-24T18:13:42.622Z,100020.88
2023-05-24T18:16:10.785Z,100023.38
2023-05-24T18:18:38.319Z,100022.75
2023-05-24T18:21:05.927Z,100031.65
2023-05-24T18:23:37.387Z,100031.30
2023-05-24T18:26:08.959Z,100036.29
2023-05-24T18:28:37.722Z,100042.63
2023-05-24T18:31:08.489Z,100041.33
2023-05-24T18:33:37.003Z,100042.92
2023-05-24T18:36:05.933Z,100045.32
2023-05-24T18:38:33.721Z,100046.58
2023-05-24T18:41:03.526Z,100048.09
2023-05-24T18:43:33.067Z,100052.48
2023-05-24T18:46:01.202Z,100053.76
2023-05-24T18:48:28.522Z,100050.84
2023-05-24T18:50:55.850Z,100048.13
2023-05-24T18:53:23.141Z,100041.90
2023-05-24T18:55:51.089Z,100044.44
2023-05-24T18:58:18.391Z,100043.66
2023-05-24T19:00:46.005Z,100044.73
2023-05-24T19:03:13.702Z,100047.92
2023-05-24T19:05:43.820Z,100049.36
2023-05-24T19:08:11.796Z,100047.34
2023-05-24T19:10:39.163Z,100048.02
2023-05-24T19:13:06.692Z,100046.98
2023-05-24T19:15:37.477Z,100051.86
2023-05-24T19:18:05.236Z,100054.11
2023-05-24T19:20:32.702Z,100059.12
2023-05-24T19:23:00.298Z,100057.58
2023-05-24T19:25:28.249Z,100059.76
2023-05-24T19:28:00.535Z,100056.84
2023-05-24T19:30:28.552Z,100054.55
2023-05-24T19:32:55.986Z,100054.92
2023-05-24T19:35:23.564Z,100053.66
2023-05-24T19:37:52.336Z,100054.23
2023-05-24T19:40:20.334Z,100056.72
2023-05-24T19:42:47.680Z,100055.92
2023-05-24T19:45:15.157Z,100053.44
2023-05-24T19:47:45.968Z,100051.64
2023-05-24T19:50:13.303Z,100047.04
2023-05-24T19:52:41.008Z,100053.78
2023-05-24T19:55:08.746Z,100057.77
2023-05-24T19:57:36.232Z,100056.86
2023-05-24T20:00:04.590Z,100051.98
2023-05-24T20:02:39.048Z,100048.38
2023-05-24T20:05:07.073Z,100051.96
2023-05-24T20:07:34.430Z,100052.64
2023-05-24T20:10:01.915Z,100054.87
2023-05-24T20:12:30.965Z,100056.98
2023-05-24T20:14:58.730Z,100064.05
2023-05-24T20:17:26.361Z,100065.15
2023-05-24T20:19:53.703Z,100063.31
2023-05-24T20:22:21.361Z,100062.80
2023-05-24T20:24:48.675Z,100062.05
2023-05-24T20:27:16.554Z,100061.59
2023-05-24T20:29:43.928Z,100060.84
2023-05-24T20:32:11.965Z,100063.77
2023-05-24T20:34:39.322Z,100060.23
2023-05-24T20:37:06.797Z,100065.05
2023-05-24T20:39:34.167Z,100063.33
2023-05-24T20:42:02.325Z,100064.38
2023-05-24T20:44:29.635Z,100068.35
2023-05-24T20:46:57.178Z,100063.52
2023-05-24T20:49:24.528Z,100064.53
2023-05-24T20:51:52.010Z,100063.74
2023-05-24T20:54:19.324Z,100058.60
2023-05-24T20:56:46.674Z,100061.29
2023-05-24T20:59:16.815Z,100063.60
2023-05-24T21:01:44.290Z,100061.47
2023-05-24T21:04:11.885Z,100062.92
2023-05-24T21:08:50.840Z,100071.06
2023-05-24T21:11:17.656Z,100065.89
2023-05-24T21:13:44.302Z,100063.83
2023-05-24T21:16:11.018Z,100063.09
2023-05-24T21:18:38.085Z,100054.82
2023-05-24T21:21:05.297Z,100056.19
2023-05-24T21:23:32.136Z,100051.00
2023-05-24T21:25:58.574Z,100045.66
2023-05-24T21:28:25.083Z,100044.15
2023-05-24T21:30:51.552Z,100039.52
2023-05-24T21:33:19.183Z,100036.17
2023-05-24T21:35:45.818Z,100038.64
2023-05-24T21:38:12.480Z,100036.98
2023-05-24T21:40:39.076Z,100039.80
2023-05-24T21:43:09.060Z,100044.15
2023-05-24T21:45:35.922Z,100044.46
2023-05-24T21:48:02.667Z,100042.64
2023-05-24T21:50:29.324Z,100041.72
2023-05-24T21:52:55.955Z,100042.23
2023-05-24T21:55:22.980Z,100039.29
2023-05-24T21:57:51.588Z,100046.92
2023-05-24T22:00:19.442Z,100045.73
2023-05-24T22:02:46.619Z,100042.70
2023-05-24T22:05:13.515Z,100038.77
2023-05-24T22:07:40.918Z,100042.05
2023-05-24T22:10:07.829Z,100042.37
2023-05-24T22:12:34.691Z,100039.52
2023-05-24T22:15:01.368Z,100046.31
2023-05-24T22:17:32.285Z,100046.73
2023-05-24T22:20:01.666Z,100045.70
2023-05-24T22:22:29.219Z,100050.91
2023-05-24T22:24:55.820Z,100053.95
2023-05-24T22:27:22.803Z,100050.05
2023-05-24T22:29:49.239Z,100050.01
2023-05-24T22:32:15.798Z,100051.59
2023-05-24T22:34:42.647Z,100058.41
2023-05-24T22:37:09.338Z,100056.48
2023-05-24T22:39:36.429Z,100057.89
2023-05-24T22:42:03.079Z,100059.16
2023-05-24T22:44:29.906Z,100063.66
2023-05-24T22:46:56.434Z,100063.36
2023-05-24T22:49:23.512Z,100059.29
2023-05-24T22:51:52.489Z,100061.34
2023-05-24T22:54:18.913Z,100061.75
2023-05-24T22:56:45.648Z,100066.38
2023-05-24T22:59:12.250Z,100067.24
2023-05-24T23:01:38.992Z,100067.92
2023-05-24T23:04:19.842Z,100064.50
2023-05-24T23:06:51.569Z,100069.58
2023-05-24T23:09:33.263Z,100074.10
2023-05-24T23:12:06.634Z,100075.77
2023-05-24T23:14:37.720Z,100074.61
2023-05-24T23:17:05.343Z,100078.20
2023-05-24T23:19:32.020Z,100078.17
2023-05-24T23:21:58.556Z,100073.98
2023-05-24T23:24:26.172Z,100078.84
2023-05-24T23:26:55.082Z,100079.20
2023-05-24T23:29:21.946Z,100085.20
2023-05-24T23:31:48.426Z,100085.63
2023-05-24T23:34:15.181Z,100085.90
2023-05-24T23:36:41.745Z,100083.73
2023-05-24T23:39:10.307Z,100087.98
2023-05-24T23:41:37.656Z,100092.36
2023-05-24T23:44:04.227Z,100092.88
2023-05-24T23:46:30.972Z,100090.23
2023-05-24T23:48:57.888Z,100084.75
2023-05-24T23:51:24.704Z,100084.13
2023-05-24T23:53:51.168Z,100078.77
2023-05-24T23:56:17.608Z,100080.23
2023-05-24T23:58:44.236Z,100077.70
